sensor_id;sensor_type;location;lat;lon;timestamp;pressure;altitude;pressure_sealevel;temperature;humidity
47763;BME280;33526;42.690;23.322;2023-02-03T00:03:31;95292.53;;;2.58;71.84
47763;BME280;33526;42.690;23.322;2023-02-03T00:06:02;95242.91;;;2.13;72.64
47763;BME280;33526;42.690;23.322;2023-02-03T00:11:29;95302.13;;;2.43;73.84
47763;BME280;33526;42.690;23.322;2023-02-03T00:14:28;95305.72;;;2.40;74.99
47763;BME280;33526;42.690;23.322;2023-02-03T00:17:04;95306.44;;;2.47;75.29
47763;BME280;33526;42.690;23.322;2023-02-03T00:19:31;95305.72;;;2.40;75.76
47763;BME280;33526;42.690;23.322;2023-02-03T00:22:21;95291.59;;;2.34;76.32
47763;BME280;33526;42.690;23.322;2023-02-03T00:24:57;95219.66;;;1.72;76.22
47763;BME280;33526;42.690;23.322;2023-02-03T00:27:35;95166.47;;;1.30;76.71
47763;BME280;33526;42.690;23.322;2023-02-03T00:30:02;95190.88;;;1.32;76.98
47763;BME280;33526;42.690;23.322;2023-02-03T00:33:11;95150.91;;;1.06;77.70
47763;BME280;33526;42.690;23.322;2023-02-03T00:41:20;95233.31;;;1.38;79.75
47763;BME280;33526;42.690;23.322;2023-02-03T00:43:47;95240.47;;;1.32;79.79
47763;BME280;33526;42.690;23.322;2023-02-03T00:57:35;95327.00;;;1.94;81.43
47763;BME280;33526;42.690;23.322;2023-02-03T01:00:03;95330.09;;;2.00;81.43
47763;BME280;33526;42.690;23.322;2023-02-03T01:02:45;95229.81;;;1.34;80.11
47763;BME280;33526;42.690;23.322;2023-02-03T01:05:31;95339.56;;;2.02;80.71
47763;BME280;33526;42.690;23.322;2023-02-03T01:08:37;95354.19;;;1.96;81.59
47763;BME280;33526;42.690;23.322;2023-02-03T01:11:29;95265.59;;;1.41;82.18
47763;BME280;33526;42.690;23.322;2023-02-03T01:19:15;95284.88;;;1.41;82.92
47763;BME280;33526;42.690;23.322;2023-02-03T01:21:43;95214.75;;;0.90;82.97
47763;BME280;33526;42.690;23.322;2023-02-03T01:24:19;95243.72;;;1.16;81.63
47763;BME280;33526;42.690;23.322;2023-02-03T01:29:34;95196.34;;;0.80;80.77
47763;BME280;33526;42.690;23.322;2023-02-03T01:32:27;95322.84;;;1.71;80.50
47763;BME280;33526;42.690;23.322;2023-02-03T01:41:22;95255.28;;;0.86;80.55
47763;BME280;33526;42.690;23.322;2023-02-03T01:48:09;95366.69;;;1.55;80.85
47763;BME280;33526;42.690;23.322;2023-02-03T01:51:17;95273.75;;;0.89;80.21
47763;BME280;33526;42.690;23.322;2023-02-03T02:01:12;95355.69;;;1.51;79.84
47763;BME280;33526;42.690;23.322;2023-02-03T02:04:18;95193.38;;;0.42;79.25
47763;BME280;33526;42.690;23.322;2023-02-03T02:07:36;95330.53;;;1.35;79.10
47763;BME280;33526;42.690;23.322;2023-02-03T02:13:37;95368.59;;;1.62;78.93
47763;BME280;33526;42.690;23.322;2023-02-03T02:41:46;95387.13;;;1.58;78.40
47763;BME280;33526;42.690;23.322;2023-02-03T02:44:30;95395.03;;;1.56;78.26
47763;BME280;33526;42.690;23.322;2023-02-03T02:51:15;95396.97;;;1.62;78.15
47763;BME280;33526;42.690;23.322;2023-02-03T02:54:22;95295.47;;;0.72;77.99
47763;BME280;33526;42.690;23.322;2023-02-03T02:57:33;95354.59;;;1.27;77.75
47763;BME280;33526;42.690;23.322;2023-02-03T03:00:33;95303.66;;;0.87;77.30
47763;BME280;33526;42.690;23.322;2023-02-03T03:03:28;95319.78;;;0.92;77.60
47763;BME280;33526;42.690;23.322;2023-02-03T03:06:15;95319.34;;;0.90;77.07
47763;BME280;33526;42.690;23.322;2023-02-03T03:11:44;95316.25;;;0.81;76.26
47763;BME280;33526;42.690;23.322;2023-02-03T03:14:56;95317.84;;;0.82;76.09
47763;BME280;33526;42.690;23.322;2023-02-03T03:17:49;95326.47;;;0.84;75.76
47763;BME280;33526;42.690;23.322;2023-02-03T03:20:47;95426.19;;;1.38;75.20
47763;BME280;33526;42.690;23.322;2023-02-03T03:25:55;95280.22;;;0.43;75.10
47763;BME280;33526;42.690;23.322;2023-02-03T03:28:32;95268.47;;;0.31;75.17
47763;BME280;33526;42.690;23.322;2023-02-03T03:31:21;95422.28;;;1.36;74.90
47763;BME280;33526;42.690;23.322;2023-02-03T03:40:25;95309.66;;;0.56;73.87
47763;BME280;33526;42.690;23.322;2023-02-03T03:49:27;95282.63;;;0.23;74.56
47763;BME280;33526;42.690;23.322;2023-02-03T03:57:37;95410.16;;;1.11;75.39
47763;BME280;33526;42.690;23.322;2023-02-03T04:00:16;95250.41;;;0.16;75.15
47763;BME280;33526;42.690;23.322;2023-02-03T04:03:12;95291.25;;;0.25;75.34
47763;BME280;33526;42.690;23.322;2023-02-03T04:05:39;95413.75;;;1.01;75.17
47763;BME280;33526;42.690;23.322;2023-02-03T04:11:47;95390.19;;;0.79;75.70
47763;BME280;33526;42.690;23.322;2023-02-03T04:17:18;95428.72;;;0.93;75.87
47763;BME280;33526;42.690;23.322;2023-02-03T04:19:49;95299.16;;;0.08;75.48
47763;BME280;33526;42.690;23.322;2023-02-03T04:23:22;95436.97;;;0.93;76.23
47763;BME280;33526;42.690;23.322;2023-02-03T04:25:48;95326.66;;;0.12;76.46
47763;BME280;33526;42.690;23.322;2023-02-03T04:28:14;95372.22;;;0.34;76.18
47763;BME280;33526;42.690;23.322;2023-02-03T04:30:46;95366.72;;;0.34;76.31
47763;BME280;33526;42.690;23.322;2023-02-03T04:36:02;95381.63;;;0.37;75.76
47763;BME280;33526;42.690;23.322;2023-02-03T04:39:00;95424.84;;;0.72;76.21
47763;BME280;33526;42.690;23.322;2023-02-03T04:41:39;95401.66;;;0.52;76.12
47763;BME280;33526;42.690;23.322;2023-02-03T04:44:07;95390.66;;;0.45;75.85
47763;BME280;33526;42.690;23.322;2023-02-03T04:47:04;95328.25;;;0.02;75.87
47763;BME280;33526;42.690;23.322;2023-02-03T04:49:41;95435.84;;;0.69;75.56
47763;BME280;33526;42.690;23.322;2023-02-03T04:52:09;95397.34;;;0.47;75.63
47763;BME280;33526;42.690;23.322;2023-02-03T04:54:46;95497.13;;;1.09;76.16
47763;BME280;33526;42.690;23.322;2023-02-03T04:57:36;95388.72;;;0.34;75.44
47763;BME280;33526;42.690;23.322;2023-02-03T05:00:22;95420.13;;;0.62;75.83
47763;BME280;33526;42.690;23.322;2023-02-03T05:08:13;95359.66;;;0.08;75.81
47763;BME280;33526;42.690;23.322;2023-02-03T05:14:48;95508.16;;;0.98;75.36
47763;BME280;33526;42.690;23.322;2023-02-03T05:17:45;95405.22;;;0.20;76.01
47763;BME280;33526;42.690;23.322;2023-02-03T05:24:01;95530.19;;;1.09;75.45
47763;BME280;33526;42.690;23.322;2023-02-03T05:27:07;95535.69;;;1.05;75.35
47763;BME280;33526;42.690;23.322;2023-02-03T05:29:38;95458.66;;;0.48;75.86
47763;BME280;33526;42.690;23.322;2023-02-03T05:32:05;95534.09;;;1.08;75.69
47763;BME280;33526;42.690;23.322;2023-02-03T05:43:06;95529.41;;;1.08;75.66
47763;BME280;33526;42.690;23.322;2023-02-03T05:46:38;95331.38;;;-0.28;75.44
47763;BME280;33526;42.690;23.322;2023-02-03T05:50:17;95538.84;;;1.00;76.22
47763;BME280;33526;42.690;23.322;2023-02-03T05:56:59;95542.78;;;0.95;76.47
47763;BME280;33526;42.690;23.322;2023-02-03T05:59:56;95410.72;;;-0.02;75.59
47763;BME280;33526;42.690;23.322;2023-02-03T06:02:56;95359.59;;;-0.46;75.39
47763;BME280;33526;42.690;23.322;2023-02-03T06:06:01;95332.91;;;-0.45;75.67
47763;BME280;33526;42.690;23.322;2023-02-03T06:09:19;95455.50;;;0.35;75.47
47763;BME280;33526;42.690;23.322;2023-02-03T06:12:15;95342.34;;;-0.53;75.51
47763;BME280;33526;42.690;23.322;2023-02-03T06:14:52;95318.78;;;-0.58;75.28
47763;BME280;33526;42.690;23.322;2023-02-03T06:17:25;95382.00;;;-0.26;74.87
47763;BME280;33526;42.690;23.322;2023-02-03T06:20:19;95332.50;;;-0.51;74.87
47763;BME280;33526;42.690;23.322;2023-02-03T06:23:11;95575.84;;;1.06;75.11
47763;BME280;33526;42.690;23.322;2023-02-03T06:26:07;95343.91;;;-0.38;74.35
47763;BME280;33526;42.690;23.322;2023-02-03T06:28:36;95361.22;;;-0.30;74.38
47763;BME280;33526;42.690;23.322;2023-02-03T06:31:05;95384.00;;;-0.15;74.36
47763;BME280;33526;42.690;23.322;2023-02-03T06:33:53;95371.41;;;-0.20;73.94
47763;BME280;33526;42.690;23.322;2023-02-03T06:36:22;95376.13;;;-0.10;72.92
47763;BME280;33526;42.690;23.322;2023-02-03T06:41:43;95509.75;;;0.95;73.51
47763;BME280;33526;42.690;23.322;2023-02-03T06:44:32;95510.50;;;1.10;71.79
47763;BME280;33526;42.690;23.322;2023-02-03T06:47:11;95396.97;;;0.24;71.09
47763;BME280;33526;42.690;23.322;2023-02-03T06:52:16;95623.34;;;1.82;70.74
47763;BME280;33526;42.690;23.322;2023-02-03T06:54:47;95609.91;;;1.91;70.67
47763;BME280;33526;42.690;23.322;2023-02-03T06:57:24;95609.47;;;2.11;68.77
47763;BME280;33526;42.690;23.322;2023-02-03T07:00:02;95577.94;;;2.01;68.87
47763;BME280;33526;42.690;23.322;2023-02-03T07:02:31;95528.41;;;1.76;67.89
47763;BME280;33526;42.690;23.322;2023-02-03T07:05:18;95464.38;;;1.43;67.69
47763;BME280;33526;42.690;23.322;2023-02-03T07:07:45;95471.06;;;1.35;67.54
47763;BME280;33526;42.690;23.322;2023-02-03T07:10:11;95610.19;;;2.22;67.64
47763;BME280;33526;42.690;23.322;2023-02-03T07:12:37;95600.78;;;2.13;68.87
47763;BME280;33526;42.690;23.322;2023-02-03T07:15:34;95478.97;;;1.26;68.13
47763;BME280;33526;42.690;23.322;2023-02-03T07:18:02;95581.94;;;1.93;68.21
47763;BME280;33526;42.690;23.322;2023-02-03T07:28:30;95467.97;;;1.22;68.21
47763;BME280;33526;42.690;23.322;2023-02-03T07:31:03;95587.00;;;2.09;67.65
47763;BME280;33526;42.690;23.322;2023-02-03T07:33:30;95528.09;;;1.52;67.14
47763;BME280;33526;42.690;23.322;2023-02-03T07:36:06;95490.78;;;1.33;67.24
47763;BME280;33526;42.690;23.322;2023-02-03T07:41:54;95546.59;;;1.63;67.47
47763;BME280;33526;42.690;23.322;2023-02-03T07:44:22;95499.81;;;1.34;66.98
47763;BME280;33526;42.690;23.322;2023-02-03T07:46:48;95583.88;;;1.96;66.96
47763;BME280;33526;42.690;23.322;2023-02-03T07:49:14;95554.06;;;1.73;66.25
47763;BME280;33526;42.690;23.322;2023-02-03T07:51:41;95503.75;;;1.29;66.42
47763;BME280;33526;42.690;23.322;2023-02-03T07:54:07;95628.31;;;2.23;66.64
47763;BME280;33526;42.690;23.322;2023-02-03T07:56:32;95555.25;;;1.65;66.49
47763;BME280;33526;42.690;23.322;2023-02-03T07:59:01;95541.03;;;1.77;65.55
47763;BME280;33526;42.690;23.322;2023-02-03T08:01:27;95632.19;;;2.37;65.84
47763;BME280;33526;42.690;23.322;2023-02-03T08:03:56;95536.75;;;1.62;65.37
47763;BME280;33526;42.690;23.322;2023-02-03T08:06:24;95502.53;;;1.48;66.36
47763;BME280;33526;42.690;23.322;2023-02-03T08:08:50;95561.44;;;1.90;65.68
47763;BME280;33526;42.690;23.322;2023-02-03T08:11:16;95545.31;;;1.85;64.96
47763;BME280;33526;42.690;23.322;2023-02-03T08:13:42;95515.81;;;1.75;65.61
47763;BME280;33526;42.690;23.322;2023-02-03T08:16:09;95474.22;;;1.44;65.09
47763;BME280;33526;42.690;23.322;2023-02-03T08:18:35;95632.16;;;2.44;66.05
47763;BME280;33526;42.690;23.322;2023-02-03T08:21:06;95503.22;;;1.70;66.29
47763;BME280;33526;42.690;23.322;2023-02-03T08:23:33;95538.22;;;1.91;65.60
47763;BME280;33526;42.690;23.322;2023-02-03T08:26:00;95635.25;;;2.57;65.56
47763;BME280;33526;42.690;23.322;2023-02-03T08:28:27;95536.25;;;1.88;64.44
47763;BME280;33526;42.690;23.322;2023-02-03T08:30:53;95511.91;;;1.69;64.84
47763;BME280;33526;42.690;23.322;2023-02-03T08:33:20;95496.53;;;1.71;64.58
47763;BME280;33526;42.690;23.322;2023-02-03T08:35:47;95641.53;;;2.61;63.50
47763;BME280;33526;42.690;23.322;2023-02-03T08:38:15;95477.69;;;1.59;63.13
47763;BME280;33526;42.690;23.322;2023-02-03T08:40:41;95523.66;;;1.87;63.94
47763;BME280;33526;42.690;23.322;2023-02-03T08:43:08;95538.88;;;2.17;63.31
47763;BME280;33526;42.690;23.322;2023-02-03T08:45:38;95606.06;;;2.59;62.41
47763;BME280;33526;42.690;23.322;2023-02-03T08:48:04;95580.97;;;2.28;62.21
47763;BME280;33526;42.690;23.322;2023-02-03T08:50:32;95657.09;;;2.96;62.17
47763;BME280;33526;42.690;23.322;2023-02-03T08:52:58;95578.53;;;2.48;61.90
47763;BME280;33526;42.690;23.322;2023-02-03T08:55:24;95546.72;;;2.22;61.80
47763;BME280;33526;42.690;23.322;2023-02-03T08:57:50;95633.31;;;2.50;62.64
47763;BME280;33526;42.690;23.322;2023-02-03T09:00:16;95673.72;;;2.89;62.79
47763;BME280;33526;42.690;23.322;2023-02-03T09:02:43;95576.31;;;2.22;62.32
47763;BME280;33526;42.690;23.322;2023-02-03T09:05:09;95677.66;;;2.88;63.63
47763;BME280;33526;42.690;23.322;2023-02-03T09:07:35;95617.19;;;2.45;62.97
47763;BME280;33526;42.690;23.322;2023-02-03T09:10:01;95656.47;;;2.71;62.76
47763;BME280;33526;42.690;23.322;2023-02-03T09:12:26;95518.94;;;1.84;62.85
47763;BME280;33526;42.690;23.322;2023-02-03T09:14:52;95577.84;;;2.26;63.52
47763;BME280;33526;42.690;23.322;2023-02-03T09:17:18;95656.34;;;2.96;63.97
47763;BME280;33526;42.690;23.322;2023-02-03T09:19:44;95597.63;;;2.77;63.90
47763;BME280;33526;42.690;23.322;2023-02-03T09:22:12;95522.19;;;2.39;63.88
47763;BME280;33526;42.690;23.322;2023-02-03T09:24:40;95519.41;;;2.42;62.96
47763;BME280;33526;42.690;23.322;2023-02-03T09:27:10;95518.53;;;2.56;63.54
47763;BME280;33526;42.690;23.322;2023-02-03T09:29:41;95618.22;;;3.25;63.27
47763;BME280;33526;42.690;23.322;2023-02-03T09:32:06;95487.81;;;2.51;62.66
47763;BME280;33526;42.690;23.322;2023-02-03T09:34:35;95548.34;;;2.76;62.68
47763;BME280;33526;42.690;23.322;2023-02-03T09:37:01;95509.06;;;2.54;62.69
47763;BME280;33526;42.690;23.322;2023-02-03T09:39:28;95532.31;;;2.56;63.13
47763;BME280;33526;42.690;23.322;2023-02-03T09:42:15;95649.53;;;3.56;62.23
47763;BME280;33526;42.690;23.322;2023-02-03T09:44:48;95651.88;;;3.58;62.61
47763;BME280;33526;42.690;23.322;2023-02-03T09:47:23;95655.28;;;3.76;61.49
47763;BME280;33526;42.690;23.322;2023-02-03T09:50:05;95599.13;;;3.41;59.28
47763;BME280;33526;42.690;23.322;2023-02-03T09:52:34;95497.44;;;2.77;58.96
47763;BME280;33526;42.690;23.322;2023-02-03T09:58:13;95596.66;;;3.05;58.51
47763;BME280;33526;42.690;23.322;2023-02-03T10:15:32;95647.28;;;3.44;57.07
47763;BME280;33526;42.690;23.322;2023-02-03T10:18:11;95486.19;;;2.53;57.42
47763;BME280;33526;42.690;23.322;2023-02-03T10:20:42;95578.78;;;3.21;57.80
47763;BME280;33526;42.690;23.322;2023-02-03T10:23:14;95499.84;;;2.75;57.40
47763;BME280;33526;42.690;23.322;2023-02-03T10:25:50;95484.59;;;2.59;57.25
47763;BME280;33526;42.690;23.322;2023-02-03T10:28:23;95636.72;;;3.77;57.93
47763;BME280;33526;42.690;23.322;2023-02-03T10:30:58;95549.72;;;3.43;57.22
47763;BME280;33526;42.690;23.322;2023-02-03T10:33:25;95625.38;;;4.02;57.06
47763;BME280;33526;42.690;23.322;2023-02-03T10:36:10;95623.34;;;4.06;54.62
47763;BME280;33526;42.690;23.322;2023-02-03T10:39:25;95551.59;;;3.54;54.20
47763;BME280;33526;42.690;23.322;2023-02-03T10:41:47;95578.38;;;3.64;54.74
47763;BME280;33526;42.690;23.322;2023-02-03T10:44:13;95524.13;;;3.36;55.43
47763;BME280;33526;42.690;23.322;2023-02-03T10:46:44;95494.59;;;3.29;54.35
47763;BME280;33526;42.690;23.322;2023-02-03T10:49:11;95573.06;;;3.80;53.87
47763;BME280;33526;42.690;23.322;2023-02-03T10:51:50;95620.38;;;3.90;53.91
47763;BME280;33526;42.690;23.322;2023-02-03T10:56:55;95585.03;;;3.25;52.75
47763;BME280;33526;42.690;23.322;2023-02-03T10:59:34;95520.78;;;2.72;52.20
47763;BME280;33526;42.690;23.322;2023-02-03T11:02:00;95646.28;;;3.65;51.12
47763;BME280;33526;42.690;23.322;2023-02-03T11:04:32;95633.19;;;3.73;51.68
47763;BME280;33526;42.690;23.322;2023-02-03T11:07:05;95627.38;;;3.98;50.33
47763;BME280;33526;42.690;23.322;2023-02-03T11:12:21;95620.88;;;4.46;48.42
47763;BME280;33526;42.690;23.322;2023-02-03T11:14:51;95559.88;;;4.22;49.05
47763;BME280;33526;42.690;23.322;2023-02-03T11:17:26;95573.81;;;4.46;49.33
47763;BME280;33526;42.690;23.322;2023-02-03T11:20:12;95528.31;;;4.47;48.39
47763;BME280;33526;42.690;23.322;2023-02-03T11:22:44;95528.56;;;4.56;46.22
47763;BME280;33526;42.690;23.322;2023-02-03T11:25:31;95608.78;;;5.18;45.70
47763;BME280;33526;42.690;23.322;2023-02-03T11:28:04;95587.69;;;5.01;46.12
47763;BME280;33526;42.690;23.322;2023-02-03T11:30:31;95510.00;;;4.53;45.67
47763;BME280;33526;42.690;23.322;2023-02-03T11:33:01;95483.00;;;4.34;46.97
47763;BME280;33526;42.690;23.322;2023-02-03T11:35:28;95508.97;;;4.71;47.75
47763;BME280;33526;42.690;23.322;2023-02-03T11:38:31;95438.91;;;3.92;47.23
47763;BME280;33526;42.690;23.322;2023-02-03T11:41:00;95501.13;;;4.11;47.48
47763;BME280;33526;42.690;23.322;2023-02-03T11:43:28;95422.25;;;3.69;47.78
47763;BME280;33526;42.690;23.322;2023-02-03T11:46:05;95510.16;;;4.15;46.78
47763;BME280;33526;42.690;23.322;2023-02-03T11:51:12;95582.97;;;4.43;46.41
47763;BME280;33526;42.690;23.322;2023-02-03T11:56:59;95588.78;;;4.21;45.70
47763;BME280;33526;42.690;23.322;2023-02-03T12:12:54;95458.78;;;3.18;44.45
47763;BME280;33526;42.690;23.322;2023-02-03T12:15:37;95467.75;;;3.30;44.91
47763;BME280;33526;42.690;23.322;2023-02-03T12:24:21;95427.53;;;2.87;43.42
47763;BME280;33526;42.690;23.322;2023-02-03T12:26:59;95507.56;;;3.36;43.29
47763;BME280;33526;42.690;23.322;2023-02-03T12:29:40;95518.72;;;3.63;44.21
47763;BME280;33526;42.690;23.322;2023-02-03T12:38:04;95573.09;;;4.11;44.19
47763;BME280;33526;42.690;23.322;2023-02-03T12:40:44;95420.91;;;2.77;44.99
47763;BME280;33526;42.690;23.322;2023-02-03T12:45:54;95562.38;;;3.44;46.77
47763;BME280;33526;42.690;23.322;2023-02-03T12:48:44;95566.75;;;3.38;46.73
47763;BME280;33526;42.690;23.322;2023-02-03T12:51:22;95442.81;;;2.54;46.83
47763;BME280;33526;42.690;23.322;2023-02-03T12:53:58;95409.34;;;2.48;46.30
47763;BME280;33526;42.690;23.322;2023-02-03T12:56:32;95402.81;;;2.73;46.25
47763;BME280;33526;42.690;23.322;2023-02-03T12:59:08;95407.94;;;2.74;47.34
47763;BME280;33526;42.690;23.322;2023-02-03T13:02:46;95412.88;;;3.28;47.42
47763;BME280;33526;42.690;23.322;2023-02-03T13:05:20;95418.19;;;3.46;47.41
47763;BME280;33526;42.690;23.322;2023-02-03T13:08:00;95430.47;;;3.41;48.43
47763;BME280;33526;42.690;23.322;2023-02-03T13:13:52;95340.78;;;2.81;49.04
47763;BME280;33526;42.690;23.322;2023-02-03T13:16:28;95446.53;;;3.54;49.01
47763;BME280;33526;42.690;23.322;2023-02-03T13:19:21;95325.19;;;2.63;48.80
47763;BME280;33526;42.690;23.322;2023-02-03T13:24:30;95392.81;;;2.86;49.70
47763;BME280;33526;42.690;23.322;2023-02-03T13:28:04;95515.56;;;3.61;50.56
47763;BME280;33526;42.690;23.322;2023-02-03T13:38:29;95520.97;;;3.37;51.21
47763;BME280;33526;42.690;23.322;2023-02-03T13:41:28;95515.81;;;3.39;50.65
47763;BME280;33526;42.690;23.322;2023-02-03T13:44:20;95390.88;;;2.41;50.31
47763;BME280;33526;42.690;23.322;2023-02-03T13:47:29;95379.31;;;2.08;51.09
47763;BME280;33526;42.690;23.322;2023-02-03T13:50:23;95521.31;;;3.01;52.27
47763;BME280;33526;42.690;23.322;2023-02-03T13:56:01;95526.91;;;2.94;53.12
47763;BME280;33526;42.690;23.322;2023-02-03T13:59:03;95333.97;;;1.61;53.51
47763;BME280;33526;42.690;23.322;2023-02-03T14:01:45;95447.72;;;2.32;54.54
47763;BME280;33526;42.690;23.322;2023-02-03T14:04:52;95540.00;;;2.86;54.59
47763;BME280;33526;42.690;23.322;2023-02-03T14:07:54;95537.94;;;2.94;55.85
47763;BME280;33526;42.690;23.322;2023-02-03T14:10:46;95451.22;;;2.36;55.42
47763;BME280;33526;42.690;23.322;2023-02-03T14:13:19;95385.31;;;1.92;55.44
47763;BME280;33526;42.690;23.322;2023-02-03T14:19:04;95533.91;;;3.02;55.63
47763;BME280;33526;42.690;23.322;2023-02-03T14:24:38;95421.66;;;2.40;53.97
47763;BME280;33526;42.690;23.322;2023-02-03T14:27:38;95528.72;;;3.12;54.54
47763;BME280;33526;42.690;23.322;2023-02-03T14:30:12;95402.88;;;2.20;53.76
47763;BME280;33526;42.690;23.322;2023-02-03T14:50:20;95469.69;;;2.91;49.84
47763;BME280;33526;42.690;23.322;2023-02-03T14:53:03;95511.53;;;3.31;49.87
47763;BME280;33526;42.690;23.322;2023-02-03T14:58:35;95397.19;;;2.42;49.46
47763;BME280;33526;42.690;23.322;2023-02-03T15:04:26;95364.28;;;2.17;48.73
47763;BME280;33526;42.690;23.322;2023-02-03T15:07:07;95395.59;;;2.41;50.87
47763;BME280;33526;42.690;23.322;2023-02-03T15:09:43;95475.16;;;2.98;50.32
47763;BME280;33526;42.690;23.322;2023-02-03T15:12:22;95437.19;;;2.64;49.90
47763;BME280;33526;42.690;23.322;2023-02-03T15:14:52;95486.72;;;2.86;50.78
47763;BME280;33526;42.690;23.322;2023-02-03T15:17:27;95333.69;;;1.97;51.94
47763;BME280;33526;42.690;23.322;2023-02-03T15:19:59;95395.63;;;2.37;52.10
47763;BME280;33526;42.690;23.322;2023-02-03T15:22:36;95417.56;;;2.55;52.24
47763;BME280;33526;42.690;23.322;2023-02-03T15:25:18;95362.34;;;2.10;52.13
47763;BME280;33526;42.690;23.322;2023-02-03T15:27:50;95346.28;;;1.98;52.84
47763;BME280;33526;42.690;23.322;2023-02-03T15:30:24;95307.84;;;1.76;53.40
47763;BME280;33526;42.690;23.322;2023-02-03T15:33:21;95362.31;;;2.14;53.94
47763;BME280;33526;42.690;23.322;2023-02-03T15:35:52;95343.84;;;2.07;54.56
47763;BME280;33526;42.690;23.322;2023-02-03T15:38:43;95455.28;;;2.73;52.91
47763;BME280;33526;42.690;23.322;2023-02-03T15:41:23;95459.59;;;2.74;53.05
47763;BME280;33526;42.690;23.322;2023-02-03T15:44:52;95340.78;;;1.98;53.23
47763;BME280;33526;42.690;23.322;2023-02-03T15:51:54;95363.63;;;2.02;52.79
47763;BME280;33526;42.690;23.322;2023-02-03T15:55:08;95398.91;;;2.21;52.46
47763;BME280;33526;42.690;23.322;2023-02-03T15:57:39;95326.50;;;1.58;52.09
47763;BME280;33526;42.690;23.322;2023-02-03T16:00:26;95329.94;;;1.69;52.37
47763;BME280;33526;42.690;23.322;2023-02-03T16:03:11;95416.66;;;2.20;52.32
47763;BME280;33526;42.690;23.322;2023-02-03T16:05:40;95325.28;;;1.62;52.51
47763;BME280;33526;42.690;23.322;2023-02-03T16:08:41;95439.78;;;2.37;52.44
47763;BME280;33526;42.690;23.322;2023-02-03T16:11:38;95445.38;;;2.26;52.12
47763;BME280;33526;42.690;23.322;2023-02-03T16:14:09;95279.03;;;1.32;53.04
47763;BME280;33526;42.690;23.322;2023-02-03T16:17:12;95436.75;;;2.21;52.84
47763;BME280;33526;42.690;23.322;2023-02-03T16:19:44;95322.19;;;1.49;53.01
47763;BME280;33526;42.690;23.322;2023-02-03T16:22:40;95279.47;;;1.23;52.57
47763;BME280;33526;42.690;23.322;2023-02-03T16:25:26;95308.41;;;1.49;52.37
47763;BME280;33526;42.690;23.322;2023-02-03T16:31:01;95270.81;;;1.25;52.15
47763;BME280;33526;42.690;23.322;2023-02-03T16:33:48;95237.38;;;1.23;54.21
47763;BME280;33526;42.690;23.322;2023-02-03T16:36:40;95318.16;;;1.68;53.09
47763;BME280;33526;42.690;23.322;2023-02-03T16:39:29;95273.09;;;1.37;52.53
47763;BME280;33526;42.690;23.322;2023-02-03T16:42:19;95247.19;;;1.24;53.21
47763;BME280;33526;42.690;23.322;2023-02-03T16:45:13;95260.13;;;1.34;53.05
47763;BME280;33526;42.690;23.322;2023-02-03T18:27:16;95107.72;;;0.32;57.94
47763;BME280;33526;42.690;23.322;2023-02-03T18:49:59;95233.13;;;1.07;58.63
47763;BME280;33526;42.690;23.322;2023-02-03T18:53:11;95229.59;;;1.07;59.01
47763;BME280;33526;42.690;23.322;2023-02-03T19:13:35;95121.22;;;0.79;57.28
